KAND/AND METAR and TAF weather

Enter ICAO airport designator
Station Type Date Time Source
KAND METAR 2020/01/22 11:56 UTC NOAA

KAND 221156Z AUTO 04006KT 10SM CLR M03/M11 A3039 RMK AO2 SLP296 T10281111 11028 21061 53005


Station Type Date Time Source
KAND Decoded METAR 2020/01/22 11:56 UTC NOAA

ANDERSON COUNTY AIRPORT, SC, United States (KAND) 34-30N 82-43W 239M
Jan 22, 2020 - 06:56 AM EST / 2020.01.22 1156 UTC
Wind: from the NE (040 degrees) at 7 MPH (6 KT):0
Visibility: 10 mile(s):0
Sky conditions: clear
Temperature: 27.0 F (-2.8 C)
Windchill: 19 F (-7 C):1
Dew Point: 12.0 F (-11.1 C)
Relative Humidity: 52%
Pressure (altimeter): 30.39 in. Hg (1029 hPa)
Pressure tendency: 0.01 inches (0.5 hPa) higher than three hours ago
ob: KAND 221156Z AUTO 04006KT 10SM CLR M03/M11 A3039 RMK AO2 SLP296 T10281111 11028 21061 53005
cycle: 12

Station Type Date Time Source
KAND TAF 2020/01/22 12:30 UTC NOAA

TAF KAND 221129Z 2212/2312 04006KT P6SM SKC
FM222300 06004KT P6SM FEW250
FM230500 05005KT P6SM BKN200

Example: see airport list